createdAt,value
2022-12-06T00:02:42.627Z,78.85
2022-12-06T00:05:46.530Z,79.33
2022-12-06T00:08:49.326Z,79.05
2022-12-06T00:11:51.715Z,78.90
2022-12-06T00:14:53.809Z,78.38
2022-12-06T00:17:55.942Z,79.33
2022-12-06T00:21:26.044Z,79.92
2022-12-06T00:24:28.206Z,80.70
2022-12-06T00:27:30.725Z,80.53
2022-12-06T00:30:32.907Z,80.71
2022-12-06T00:33:36.061Z,79.32
2022-12-06T00:36:39.497Z,80.10
2022-12-06T00:39:42.230Z,80.43
2022-12-06T00:42:44.701Z,81.06
2022-12-06T00:45:46.845Z,80.61
2022-12-06T00:48:49.200Z,81.21
2022-12-06T00:51:51.319Z,81.27
2022-12-06T00:54:53.469Z,81.89
2022-12-06T00:57:55.590Z,81.86
2022-12-06T01:01:17.873Z,81.53
2022-12-06T01:04:20.064Z,82.16
2022-12-06T01:07:22.185Z,82.57
2022-12-06T01:10:24.506Z,83.87
2022-12-06T01:13:26.596Z,84.36
2022-12-06T01:16:29.875Z,84.38
2022-12-06T01:19:32.033Z,84.37
2022-12-06T01:22:34.380Z,84.14
2022-12-06T01:25:36.714Z,84.72
2022-12-06T01:28:38.820Z,84.53
2022-12-06T01:31:40.877Z,85.14
2022-12-06T01:34:45.043Z,85.15
2022-12-06T01:37:47.090Z,86.44
2022-12-06T01:40:49.477Z,85.97
2022-12-06T01:43:51.739Z,85.84
2022-12-06T01:46:53.783Z,85.87
2022-12-06T01:50:00.411Z,86.06
2022-12-06T01:53:09.086Z,86.80
2022-12-06T01:56:11.139Z,87.81
2022-12-06T01:59:13.316Z,88.77
2022-12-06T02:02:15.407Z,87.63
2022-12-06T02:05:17.846Z,88.19
2022-12-06T02:08:20.408Z,88.44
2022-12-06T02:11:22.560Z,88.67
2022-12-06T02:14:29.006Z,89.38
2022-12-06T02:17:56.040Z,89.75
2022-12-06T02:21:24.537Z,89.36
2022-12-06T02:24:49.942Z,89.37
2022-12-06T02:28:18.810Z,89.44
2022-12-06T02:32:01.181Z,90.09
2022-12-06T02:35:17.188Z,90.62
2022-12-06T02:39:18.471Z,88.97
2022-12-06T02:42:28.300Z,89.29
2022-12-06T02:45:33.225Z,89.42
2022-12-06T02:48:35.283Z,89.10
2022-12-06T02:51:37.345Z,88.08
2022-12-06T02:54:39.771Z,87.87
2022-12-06T02:57:45.298Z,88.52
2022-12-06T03:00:52.030Z,88.01
2022-12-06T03:04:31.831Z,87.85
2022-12-06T03:07:46.400Z,87.73
2022-12-06T03:10:55.195Z,87.52
2022-12-06T03:14:06.458Z,86.79
2022-12-06T03:17:23.114Z,87.16
2022-12-06T03:20:43.232Z,87.14
2022-12-06T03:23:47.233Z,86.28
2022-12-06T03:26:49.890Z,86.34
2022-12-06T03:29:57.027Z,85.94
2022-12-06T03:32:59.179Z,87.37
2022-12-06T03:36:01.328Z,86.97
2022-12-06T03:39:05.707Z,86.38
2022-12-06T03:42:07.876Z,87.11
2022-12-06T03:45:11.360Z,86.74
2022-12-06T03:48:16.810Z,86.17
2022-12-06T03:51:23.246Z,87.48
2022-12-06T03:54:25.277Z,86.36
2022-12-06T03:57:27.615Z,86.47
2022-12-06T04:00:30.020Z,87.41
2022-12-06T04:03:32.149Z,86.95
2022-12-06T04:06:34.273Z,85.73
2022-12-06T04:09:55.202Z,86.08
2022-12-06T04:13:05.782Z,86.02
2022-12-06T04:16:28.434Z,87.57
2022-12-06T04:19:30.657Z,86.16
2022-12-06T04:22:51.507Z,85.65
2022-12-06T04:25:53.562Z,86.52
2022-12-06T04:29:14.111Z,87.20
2022-12-06T04:32:35.168Z,86.49
2022-12-06T04:35:55.985Z,85.91
2022-12-06T04:38:58.050Z,85.92
2022-12-06T04:42:18.714Z,86.40
2022-12-06T04:45:20.729Z,84.85
2022-12-06T04:48:22.880Z,85.34
2022-12-06T04:51:25.064Z,85.70
2022-12-06T04:54:27.147Z,86.61
2022-12-06T04:57:29.250Z,84.63
2022-12-06T05:00:31.383Z,85.32
2022-12-06T05:03:33.561Z,85.53
2022-12-06T05:06:35.750Z,85.06
2022-12-06T05:09:37.859Z,85.63
2022-12-06T05:12:39.894Z,85.59
2022-12-06T05:15:53.877Z,85.71
2022-12-06T05:18:56.009Z,84.91
2022-12-06T05:21:58.036Z,85.12
2022-12-06T05:25:00.684Z,84.50
2022-12-06T05:28:02.914Z,83.93
2022-12-06T05:31:05.288Z,84.47
2022-12-06T05:34:07.454Z,85.31
2022-12-06T05:37:09.502Z,84.68
2022-12-06T05:40:12.121Z,85.39
2022-12-06T05:43:14.547Z,84.91
2022-12-06T05:46:16.867Z,85.76
2022-12-06T05:49:19.094Z,85.98
2022-12-06T05:52:21.207Z,86.80
2022-12-06T05:55:23.393Z,86.65
2022-12-06T05:58:26.450Z,87.12
2022-12-06T06:01:28.520Z,86.85
2022-12-06T06:04:30.655Z,87.51
2022-12-06T06:07:32.843Z,87.22
2022-12-06T06:10:34.938Z,87.28
2022-12-06T06:13:36.989Z,86.84
2022-12-06T06:16:39.144Z,86.63
2022-12-06T06:19:41.312Z,87.48
2022-12-06T06:22:43.479Z,87.20
2022-12-06T06:25:45.694Z,87.58
2022-12-06T06:28:47.758Z,86.57
2022-12-06T06:31:49.835Z,86.39
2022-12-06T06:34:51.915Z,88.13
2022-12-06T06:37:53.979Z,87.40
2022-12-06T06:40:56.055Z,87.41
2022-12-06T06:43:58.161Z,87.42
2022-12-06T06:47:00.284Z,87.53
2022-12-06T06:50:02.522Z,87.41
2022-12-06T06:53:04.833Z,87.20
2022-12-06T06:56:07.371Z,86.76
2022-12-06T06:59:09.526Z,86.83
2022-12-06T07:02:15.559Z,86.96
2022-12-06T07:05:17.752Z,87.15
2022-12-06T07:08:19.993Z,87.92
2022-12-06T07:11:23.644Z,88.11
2022-12-06T07:14:25.695Z,87.05
2022-12-06T07:17:27.769Z,86.76
2022-12-06T07:20:29.900Z,86.75
2022-12-06T07:23:35.738Z,86.97
2022-12-06T07:26:37.870Z,85.90
2022-12-06T07:29:40.003Z,86.78
2022-12-06T07:32:42.139Z,85.81
2022-12-06T07:36:11.388Z,85.99
2022-12-06T07:39:11.512Z,85.24
2022-12-06T07:42:35.174Z,86.41
2022-12-06T07:45:37.673Z,85.31
2022-12-06T07:48:39.903Z,86.30
2022-12-06T07:51:42.967Z,85.80
2022-12-06T07:54:45.078Z,86.30
2022-12-06T07:57:47.162Z,86.38
2022-12-06T08:00:49.452Z,86.00
2022-12-06T08:03:51.622Z,85.28
2022-12-06T08:06:54.328Z,85.16
2022-12-06T08:09:56.449Z,85.76
2022-12-06T08:12:58.555Z,84.30
2022-12-06T08:16:04.027Z,85.06
2022-12-06T08:19:06.201Z,84.87
2022-12-06T08:28:18.137Z,85.75
2022-12-06T08:31:23.027Z,85.84
2022-12-06T08:37:40.260Z,85.51
2022-12-06T08:40:42.535Z,85.15
2022-12-06T08:43:44.585Z,86.07
2022-12-06T08:46:46.784Z,85.28
2022-12-06T08:49:50.622Z,85.50
2022-12-06T08:52:52.748Z,84.05
2022-12-06T08:56:02.062Z,84.28
2022-12-06T08:59:05.642Z,84.45
2022-12-06T09:02:09.704Z,84.38
2022-12-06T09:05:11.775Z,84.07
2022-12-06T09:08:13.941Z,83.38
2022-12-06T09:11:17.219Z,83.61
2022-12-06T09:14:21.840Z,84.28
2022-12-06T09:17:24.417Z,83.55
2022-12-06T09:20:26.533Z,84.47
2022-12-06T09:23:28.543Z,85.14
2022-12-06T09:26:30.658Z,84.20
2022-12-06T09:29:40.212Z,84.25
2022-12-06T09:32:42.722Z,84.08
2022-12-06T09:35:44.762Z,83.93
2022-12-06T09:38:47.916Z,83.32
2022-12-06T09:42:11.582Z,82.85
2022-12-06T09:45:32.369Z,82.91
2022-12-06T09:49:31.557Z,82.75
2022-12-06T09:52:51.591Z,82.99
2022-12-06T09:56:39.519Z,83.21
2022-12-06T09:59:44.332Z,82.37
2022-12-06T10:03:06.438Z,82.81
2022-12-06T10:06:15.080Z,83.14
2022-12-06T10:09:55.534Z,83.29
2022-12-06T10:13:31.460Z,83.62
2022-12-06T10:16:52.264Z,83.00
2022-12-06T10:20:44.020Z,82.66
2022-12-06T10:24:20.951Z,82.19
2022-12-06T10:27:51.393Z,82.44
2022-12-06T10:30:56.736Z,81.82
2022-12-06T10:34:06.300Z,82.85
2022-12-06T10:37:23.424Z,83.64
2022-12-06T10:41:03.623Z,84.23
2022-12-06T10:44:37.582Z,84.71
2022-12-06T10:47:42.268Z,83.98
2022-12-06T10:50:44.378Z,84.61
2022-12-06T10:53:55.386Z,84.76
2022-12-06T10:56:57.979Z,83.75
2022-12-06T11:00:29.855Z,83.18
2022-12-06T11:03:54.291Z,81.78
2022-12-06T11:07:16.356Z,80.48
2022-12-06T11:10:27.713Z,81.51
2022-12-06T11:13:37.717Z,80.16
2022-12-06T11:17:18.942Z,78.04
2022-12-06T11:20:53.538Z,77.27
2022-12-06T11:24:32.025Z,76.11
2022-12-06T11:27:38.276Z,77.08
2022-12-06T11:30:40.371Z,79.88
2022-12-06T11:33:42.543Z,80.00
2022-12-06T11:36:44.898Z,77.94
2022-12-06T11:39:48.432Z,78.66
2022-12-06T11:42:50.500Z,79.02
2022-12-06T11:45:52.653Z,77.77
2022-12-06T11:48:56.129Z,79.79
2022-12-06T11:51:59.779Z,80.65
2022-12-06T11:55:21.630Z,79.77
2022-12-06T11:58:27.130Z,79.34
2022-12-06T12:02:01.024Z,79.89
2022-12-06T12:05:19.816Z,80.24
2022-12-06T12:08:21.944Z,80.46
2022-12-06T12:11:30.443Z,82.62
2022-12-06T12:14:39.868Z,81.07
2022-12-06T12:17:43.206Z,82.74
2022-12-06T12:20:45.785Z,81.44
2022-12-06T12:23:47.903Z,80.13
2022-12-06T12:26:49.949Z,75.75
2022-12-06T12:30:24.583Z,74.89
2022-12-06T12:33:30.264Z,70.85
2022-12-06T12:36:32.454Z,71.03
2022-12-06T12:39:44.990Z,69.37
2022-12-06T12:42:47.074Z,73.31
2022-12-06T12:46:10.243Z,69.01
2022-12-06T12:49:23.441Z,75.27
2022-12-06T12:52:37.380Z,75.23
2022-12-06T12:55:41.631Z,77.46
2022-12-06T12:58:44.288Z,75.77
2022-12-06T13:02:12.941Z,68.00
2022-12-06T13:05:35.593Z,69.48
2022-12-06T13:08:38.916Z,64.38
2022-12-06T13:11:46.775Z,70.17
2022-12-06T13:14:54.114Z,64.63
2022-12-06T13:18:00.805Z,59.37
2022-12-06T13:21:19.681Z,57.56
2022-12-06T13:24:27.514Z,68.22
2022-12-06T13:27:49.736Z,71.29
2022-12-06T13:30:57.001Z,76.42
2022-12-06T13:34:28.461Z,78.11
2022-12-06T13:37:45.552Z,79.54
2022-12-06T13:40:52.623Z,81.02
2022-12-06T13:43:54.805Z,81.79
2022-12-06T13:47:29.360Z,81.52
2022-12-06T13:50:34.453Z,82.58
2022-12-06T13:53:56.439Z,80.69
2022-12-06T13:56:58.877Z,82.60
2022-12-06T14:00:01.495Z,83.01
2022-12-06T14:03:21.576Z,82.10
2022-12-06T14:06:43.419Z,81.78
2022-12-06T14:09:48.153Z,83.02
2022-12-06T14:13:01.221Z,81.71
2022-12-06T14:16:04.781Z,81.01
2022-12-06T14:19:24.539Z,80.96
2022-12-06T14:22:29.305Z,83.28
2022-12-06T14:25:31.576Z,83.41
2022-12-06T14:28:35.554Z,79.18
2022-12-06T14:31:42.657Z,79.84
2022-12-06T14:34:44.938Z,80.57
2022-12-06T14:37:50.862Z,80.13
2022-12-06T14:41:11.577Z,83.01
2022-12-06T14:44:17.730Z,84.99
2022-12-06T14:47:20.829Z,85.75
2022-12-06T14:50:41.976Z,86.63
2022-12-06T14:53:44.030Z,85.53
2022-12-06T14:56:46.135Z,86.18
2022-12-06T15:00:15.250Z,86.14
2022-12-06T15:03:26.041Z,87.11
2022-12-06T15:06:30.779Z,86.38
2022-12-06T15:09:44.313Z,85.78
2022-12-06T15:12:55.575Z,86.23
2022-12-06T15:16:09.400Z,85.66
2022-12-06T15:19:15.721Z,85.42
2022-12-06T15:22:26.577Z,86.34
2022-12-06T15:25:28.643Z,84.41
2022-12-06T15:28:30.737Z,84.87
2022-12-06T15:31:32.814Z,84.70
2022-12-06T15:34:35.219Z,84.37
2022-12-06T15:37:39.391Z,84.98
2022-12-06T15:40:44.963Z,84.46
2022-12-06T15:43:47.272Z,84.13
2022-12-06T15:46:50.194Z,83.96
2022-12-06T15:49:53.966Z,84.51
2022-12-06T15:52:56.067Z,83.81
2022-12-06T15:55:58.355Z,83.82
2022-12-06T15:59:00.445Z,83.25
2022-12-06T16:02:02.793Z,84.19
2022-12-06T16:05:05.797Z,83.64
2022-12-06T16:08:08.258Z,83.53
2022-12-06T16:11:12.645Z,83.08
2022-12-06T16:14:15.048Z,83.37
2022-12-06T16:17:17.075Z,82.37
2022-12-06T16:20:31.377Z,81.68
2022-12-06T16:27:14.244Z,81.89
2022-12-06T16:30:17.135Z,83.32
2022-12-06T16:33:20.921Z,81.69
2022-12-06T16:36:23.869Z,82.90
2022-12-06T16:39:26.335Z,83.75
2022-12-06T16:42:28.436Z,84.76
2022-12-06T16:45:30.656Z,83.65
2022-12-06T16:48:34.626Z,84.17
2022-12-06T16:51:36.748Z,83.86
2022-12-06T16:54:42.386Z,85.47
2022-12-06T16:57:45.016Z,84.90
2022-12-06T17:00:47.172Z,84.15
2022-12-06T17:03:58.329Z,83.25
2022-12-06T17:07:00.439Z,82.95
2022-12-06T17:10:02.592Z,83.57
2022-12-06T17:13:04.885Z,82.83
2022-12-06T17:16:08.015Z,82.09
2022-12-06T17:19:15.345Z,81.52
2022-12-06T17:22:18.716Z,82.08
2022-12-06T17:25:20.870Z,82.25
2022-12-06T17:28:22.936Z,83.09
2022-12-06T17:31:25.118Z,82.10
2022-12-06T17:34:27.160Z,82.12
2022-12-06T17:37:29.200Z,83.13
2022-12-06T17:40:33.015Z,84.96
2022-12-06T17:43:35.096Z,84.41
2022-12-06T17:46:37.665Z,83.97
2022-12-06T17:49:39.765Z,84.45
2022-12-06T17:52:41.836Z,83.38
2022-12-06T17:55:43.895Z,83.73
2022-12-06T17:58:45.925Z,83.69
2022-12-06T18:02:14.143Z,83.67
2022-12-06T18:05:10.639Z,82.77
2022-12-06T18:08:12.793Z,83.62
2022-12-06T18:11:15.938Z,83.47
2022-12-06T18:14:20.541Z,82.69
2022-12-06T18:17:22.582Z,83.17
2022-12-06T18:20:24.652Z,83.42
2022-12-06T18:23:26.847Z,85.04
2022-12-06T18:26:28.991Z,83.80
2022-12-06T18:29:31.093Z,84.94
2022-12-06T18:32:33.166Z,83.75
2022-12-06T18:35:36.085Z,83.91
2022-12-06T18:38:38.268Z,83.69
2022-12-06T18:41:40.296Z,83.92
2022-12-06T18:44:42.324Z,84.54
2022-12-06T18:47:44.373Z,84.03
2022-12-06T18:50:46.450Z,84.34
2022-12-06T18:53:49.313Z,83.80
2022-12-06T18:56:51.558Z,84.40
2022-12-06T18:59:53.593Z,84.51
2022-12-06T19:02:55.684Z,84.40
2022-12-06T19:06:04.937Z,84.68
2022-12-06T19:09:10.272Z,82.99
2022-12-06T19:12:12.324Z,84.47
2022-12-06T19:15:14.565Z,84.07
2022-12-06T19:18:16.685Z,84.45
2022-12-06T19:21:24.133Z,84.15
2022-12-06T19:24:26.747Z,84.73
2022-12-06T19:27:28.781Z,84.72
2022-12-06T19:30:30.845Z,85.71
2022-12-06T19:33:38.712Z,85.17
2022-12-06T19:36:40.753Z,84.63
2022-12-06T19:39:43.003Z,84.23
2022-12-06T19:43:03.843Z,83.50
2022-12-06T19:46:17.391Z,83.57
2022-12-06T19:49:20.978Z,83.43
2022-12-06T19:52:26.564Z,83.08
2022-12-06T19:55:32.690Z,83.70
2022-12-06T19:58:34.752Z,83.53
2022-12-06T20:01:37.188Z,83.68
2022-12-06T20:04:41.740Z,84.71
2022-12-06T20:07:44.658Z,85.40
2022-12-06T20:10:46.759Z,85.07
2022-12-06T20:13:48.807Z,85.81
2022-12-06T20:16:51.421Z,85.60
2022-12-06T20:19:53.599Z,85.84
2022-12-06T20:22:55.642Z,85.25
2022-12-06T20:25:57.820Z,85.79
2022-12-06T20:29:00.143Z,84.49
2022-12-06T20:32:02.515Z,84.60
2022-12-06T20:35:04.952Z,85.82
2022-12-06T20:38:07.017Z,85.11
2022-12-06T20:41:20.284Z,84.80
2022-12-06T20:44:22.458Z,84.60
2022-12-06T20:47:24.507Z,84.39
2022-12-06T20:50:31.721Z,83.79
2022-12-06T20:53:34.021Z,84.21
2022-12-06T20:56:38.167Z,83.07
2022-12-06T20:59:40.508Z,83.56
2022-12-06T21:02:42.672Z,83.13
2022-12-06T21:05:45.371Z,83.09
2022-12-06T21:08:48.352Z,83.08
2022-12-06T21:11:50.563Z,81.84
2022-12-06T21:14:52.858Z,81.72
2022-12-06T21:17:54.964Z,82.14
2022-12-06T21:20:57.218Z,82.97
2022-12-06T21:24:00.521Z,83.55
2022-12-06T21:27:02.576Z,83.94
2022-12-06T21:30:05.652Z,82.63
2022-12-06T21:33:07.688Z,83.07
2022-12-06T21:36:11.052Z,83.13
2022-12-06T21:39:13.812Z,82.78
2022-12-06T21:42:15.875Z,82.47
2022-12-06T21:45:18.311Z,82.90
2022-12-06T21:48:20.334Z,82.48
2022-12-06T21:51:29.674Z,82.54
2022-12-06T21:54:31.757Z,83.42
2022-12-06T21:57:35.127Z,83.99
2022-12-06T22:00:42.248Z,82.85
2022-12-06T22:03:47.625Z,83.36
2022-12-06T22:06:49.678Z,83.09
2022-12-06T22:09:51.717Z,82.83
2022-12-06T22:12:53.775Z,83.13
2022-12-06T22:15:55.868Z,82.98
2022-12-06T22:18:58.353Z,82.78
2022-12-06T22:22:00.425Z,83.32
2022-12-06T22:25:02.773Z,83.65
2022-12-06T22:28:05.129Z,82.52
2022-12-06T22:31:24.628Z,83.36
2022-12-06T22:34:26.733Z,82.75
2022-12-06T22:37:28.815Z,83.22
2022-12-06T22:40:30.874Z,83.19
2022-12-06T22:43:33.075Z,83.26
2022-12-06T22:46:36.614Z,82.99
2022-12-06T22:49:38.907Z,82.86
2022-12-06T22:52:41.422Z,82.76
2022-12-06T22:55:43.450Z,82.99
2022-12-06T22:58:45.471Z,81.18
2022-12-06T23:01:47.744Z,81.85
2022-12-06T23:04:49.844Z,82.22
2022-12-06T23:07:51.941Z,81.90
2022-12-06T23:11:02.100Z,82.86
2022-12-06T23:14:04.545Z,81.66
2022-12-06T23:17:06.738Z,82.03
2022-12-06T23:20:09.315Z,82.80
2022-12-06T23:23:11.341Z,82.43
2022-12-06T23:26:24.963Z,82.15
2022-12-06T23:29:27.073Z,83.09
2022-12-06T23:32:30.063Z,82.57
2022-12-06T23:35:32.113Z,82.91
2022-12-06T23:38:34.476Z,82.79
2022-12-06T23:41:36.850Z,82.40
2022-12-06T23:44:40.100Z,82.01
2022-12-06T23:47:42.246Z,81.39
2022-12-06T23:50:44.292Z,81.68
2022-12-06T23:53:49.311Z,81.90
2022-12-06T23:56:51.378Z,80.75
2022-12-06T23:59:53.420Z,81.53
